Time;durP1;ratioP1;P1;durP2;ratioP2;P2;SDS_P1;SDS_P2;PMS_P1;PMS_P2;Temp;Humidity;BMP_temperature;BMP_pressure;BME280_temperature;BME280_humidity;BME280_pressure;Samples;Min_cycle;Max_cycle;Signal;HPM_P1;HPM_P2
2023/06/18 00:00:11;;;;;;;8.70;5.45;;;20.90;84.70;;;;;;5092701;28;20372;-74
2023/06/18 00:02:36;;;;;;;6.43;5.72;;;20.90;84.90;;;;;;5092619;28;20039;-75
2023/06/18 00:05:02;;;;;;;8.00;5.80;;;20.90;84.90;;;;;;5092654;28;20379;-75
2023/06/18 00:07:28;;;;;;;9.00;6.10;;;20.90;84.90;;;;;;5092586;28;20139;-74
2023/06/18 00:09:53;;;;;;;6.93;5.50;;;20.80;85.00;;;;;;5092773;28;20035;-74
2023/06/18 00:12:19;;;;;;;7.85;5.70;;;20.90;85.00;;;;;;5092335;28;20052;-75
2023/06/18 00:14:45;;;;;;;10.00;5.47;;;20.80;84.80;;;;;;5092418;28;20027;-74
2023/06/18 00:17:11;;;;;;;8.48;5.75;;;20.80;84.60;;;;;;5092891;28;20122;-74
2023/06/18 00:19:36;;;;;;;8.30;5.85;;;20.80;84.30;;;;;;5092692;28;20046;-75
2023/06/18 00:22:02;;;;;;;6.57;5.70;;;20.80;84.30;;;;;;5092673;28;20489;-75
2023/06/18 00:24:28;;;;;;;11.23;5.80;;;20.80;84.20;;;;;;5092216;28;20020;-75
2023/06/18 00:26:53;;;;;;;6.32;5.18;;;20.80;84.20;;;;;;5092657;28;20040;-75
2023/06/18 00:29:20;;;;;;;10.45;5.72;;;20.70;84.30;;;;;;5092735;28;20024;-74
2023/06/18 00:31:45;;;;;;;7.93;5.10;;;20.70;84.70;;;;;;5092493;28;20060;-75
2023/06/18 00:34:14;;;;;;;7.28;5.40;;;20.70;84.60;;;;;;5095312;28;20496;-75
2023/06/18 00:36:43;;;;;;;6.95;5.45;;;20.70;84.50;;;;;;5096896;28;20032;-74
2023/06/18 00:39:09;;;;;;;9.50;5.88;;;20.70;84.30;;;;;;5096386;28;20111;-75
2023/06/18 00:41:35;;;;;;;8.60;5.85;;;20.60;84.10;;;;;;5096621;28;20013;-74
2023/06/18 00:44:01;;;;;;;7.70;5.47;;;20.60;84.20;;;;;;5096160;28;20513;-75
2023/06/18 00:46:30;;;;;;;12.98;6.07;;;20.60;84.40;;;;;;5095922;28;20452;-75
2023/06/18 00:48:57;;;;;;;7.57;5.45;;;20.60;84.60;;;;;;5096260;28;20036;-74
2023/06/18 00:51:26;;;;;;;9.93;5.47;;;20.50;84.80;;;;;;5096179;28;20055;-75
2023/06/18 00:53:52;;;;;;;10.75;5.47;;;20.50;84.80;;;;;;5095913;28;20079;-74
2023/06/18 00:56:18;;;;;;;10.90;5.88;;;20.50;84.90;;;;;;5096240;28;20020;-74
2023/06/18 00:58:47;;;;;;;10.80;5.45;;;20.40;84.70;;;;;;5093947;28;20042;-75
2023/06/18 01:01:16;;;;;;;6.38;5.53;;;20.40;84.90;;;;;;5093419;28;20516;-75
2023/06/18 01:03:42;;;;;;;7.20;5.43;;;20.30;85.20;;;;;;5093121;28;20773;-74
2023/06/18 01:06:11;;;;;;;10.40;6.13;;;20.40;85.30;;;;;;5095933;28;20451;-74
2023/06/18 01:08:38;;;;;;;7.38;5.78;;;20.30;85.40;;;;;;5095975;28;20109;-74
2023/06/18 01:11:06;;;;;;;11.98;5.80;;;20.30;85.60;;;;;;5095878;28;20051;-75
2023/06/18 01:13:36;;;;;;;7.45;6.00;;;20.30;85.70;;;;;;5095675;28;20028;-74
2023/06/18 01:16:05;;;;;;;7.97;5.45;;;20.30;86.00;;;;;;5095719;28;20024;-75
2023/06/18 01:18:44;;;;;;;11.32;6.47;;;20.30;86.00;;;;;;5095733;28;20472;-74
2023/06/18 01:21:14;;;;;;;9.43;5.40;;;20.20;86.00;;;;;;5095621;28;20023;-75
2023/06/18 01:24:03;;;;;;;7.03;5.78;;;20.20;86.40;;;;;;5095685;28;20032;-74
2023/06/18 01:26:31;;;;;;;7.57;6.00;;;20.10;86.50;;;;;;5095943;28;20051;-74
2023/06/18 01:29:01;;;;;;;7.55;5.18;;;20.10;86.30;;;;;;5095531;28;20035;-75
2023/06/18 01:31:34;;;;;;;11.35;5.72;;;20.10;86.30;;;;;;5095589;28;20057;-74
2023/06/18 01:34:01;;;;;;;6.38;5.22;;;20.10;86.10;;;;;;5095702;28;20510;-74
2023/06/18 01:36:39;;;;;;;7.35;5.63;;;20.10;86.30;;;;;;5095173;28;20013;-75
2023/06/18 01:39:30;;;;;;;6.40;5.25;;;20.00;86.50;;;;;;5095257;28;20027;-74
2023/06/18 01:42:04;;;;;;;10.60;5.50;;;20.00;86.60;;;;;;5095513;28;20488;-74
2023/06/18 01:44:30;;;;;;;7.45;5.57;;;19.90;86.90;;;;;;5094812;28;20026;-75
2023/06/18 01:46:58;;;;;;;8.45;5.45;;;19.90;87.00;;;;;;5095384;28;20402;-75
2023/06/18 01:49:26;;;;;;;10.90;6.00;;;19.90;86.90;;;;;;5077058;28;20020;-74
2023/06/18 01:51:53;;;;;;;8.57;5.97;;;19.90;86.90;;;;;;5095084;28;20028;-74
2023/06/18 01:54:20;;;;;;;10.27;6.35;;;19.80;86.90;;;;;;5094997;28;20099;-74
2023/06/18 01:56:46;;;;;;;12.43;5.32;;;19.90;87.10;;;;;;5095231;28;20058;-74
2023/06/18 01:59:13;;;;;;;6.30;5.32;;;19.80;87.30;;;;;;5095027;28;20047;-74
2023/06/18 02:01:41;;;;;;;12.68;6.72;;;19.80;87.30;;;;;;5095078;28;20035;-75
2023/06/18 02:04:07;;;;;;;9.52;5.40;;;19.80;87.00;;;;;;5094923;28;20030;-74
2023/06/18 02:06:33;;;;;;;7.97;5.65;;;19.80;87.00;;;;;;5094962;28;20095;-74
2023/06/18 02:08:58;;;;;;;6.93;5.57;;;19.70;86.80;;;;;;5094865;28;20115;-74
2023/06/18 02:11:25;;;;;;;7.68;5.55;;;19.70;86.70;;;;;;5094666;28;20052;-75
2023/06/18 02:13:51;;;;;;;10.30;5.50;;;19.70;86.50;;;;;;5094493;28;20066;-74
2023/06/18 02:16:17;;;;;;;7.35;5.45;;;19.60;86.00;;;;;;5094433;28;20485;-74
2023/06/18 02:18:42;;;;;;;14.10;5.53;;;19.60;85.90;;;;;;5095008;28;20024;-75
2023/06/18 02:21:08;;;;;;;9.35;5.25;;;19.60;85.90;;;;;;5094664;28;20471;-74
2023/06/18 02:23:34;;;;;;;11.43;5.80;;;19.60;86.00;;;;;;5094734;28;20039;-74
2023/06/18 02:26:00;;;;;;;7.72;5.45;;;19.60;86.00;;;;;;5094517;28;20387;-75
2023/06/18 02:28:26;;;;;;;13.77;5.60;;;19.60;86.20;;;;;;5094412;28;20028;-75
2023/06/18 02:30:52;;;;;;;6.15;5.55;;;19.50;86.30;;;;;;5094477;28;20020;-74
2023/06/18 02:33:18;;;;;;;7.88;5.60;;;19.50;86.30;;;;;;5091460;28;20085;-75
2023/06/18 02:35:44;;;;;;;9.63;5.85;;;19.50;86.30;;;;;;5091642;28;20020;-74
2023/06/18 02:38:10;;;;;;;8.43;5.70;;;19.40;86.30;;;;;;5093543;28;20157;-74
2023/06/18 02:40:36;;;;;;;7.63;5.10;;;19.40;86.40;;;;;;5094385;28;20496;-75
2023/06/18 02:43:05;;;;;;;8.13;5.88;;;19.40;86.20;;;;;;5094222;28;20031;-74
2023/06/18 02:45:31;;;;;;;7.38;5.45;;;19.40;86.40;;;;;;5094174;28;20028;-75
2023/06/18 02:47:57;;;;;;;9.75;5.72;;;19.40;86.20;;;;;;5094245;28;20484;-74
2023/06/18 02:50:23;;;;;;;11.77;5.63;;;19.30;86.30;;;;;;5093787;28;20028;-74
2023/06/18 02:52:49;;;;;;;10.25;5.95;;;19.30;86.50;;;;;;5093788;28;20036;-75
2023/06/18 02:55:15;;;;;;;9.82;5.75;;;19.20;86.50;;;;;;5093321;28;20047;-75
2023/06/18 02:57:41;;;;;;;6.63;5.32;;;19.20;86.60;;;;;;5093288;28;20078;-74
2023/06/18 03:00:10;;;;;;;7.03;5.63;;;19.10;86.50;;;;;;5093879;28;20028;-75
2023/06/18 03:02:37;;;;;;;8.00;5.57;;;19.10;87.30;;;;;;5093991;28;20069;-74
2023/06/18 03:05:03;;;;;;;8.68;5.30;;;19.10;86.80;;;;;;5093578;28;20020;-73
2023/06/18 03:07:28;;;;;;;8.23;5.40;;;19.10;86.90;;;;;;5093642;28;20016;-75
2023/06/18 03:09:54;;;;;;;12.18;5.72;;;19.00;86.90;;;;;;5093912;28;20376;-74
2023/06/18 03:12:20;;;;;;;9.63;5.30;;;19.00;87.10;;;;;;5093278;28;20130;-74
2023/06/18 03:14:46;;;;;;;10.13;5.70;;;19.00;87.20;;;;;;5093322;28;20432;-74
2023/06/18 03:17:12;;;;;;;8.88;5.30;;;19.00;87.30;;;;;;5093353;28;20028;-75
2023/06/18 03:19:37;;;;;;;9.10;5.13;;;19.00;87.30;;;;;;5093184;28;20028;-74
2023/06/18 03:22:04;;;;;;;10.23;5.13;;;18.90;87.20;;;;;;5093540;28;20042;-74
2023/06/18 03:24:30;;;;;;;8.35;5.90;;;18.90;87.20;;;;;;5093470;28;20028;-74
2023/06/18 03:26:58;;;;;;;8.43;5.63;;;18.90;87.10;;;;;;5074829;28;20353;-74
2023/06/18 03:29:25;;;;;;;9.15;5.43;;;18.90;87.20;;;;;;5093118;28;20107;-75
2023/06/18 03:31:53;;;;;;;10.05;5.68;;;18.90;87.30;;;;;;5093355;28;20162;-74
2023/06/18 03:34:20;;;;;;;7.53;5.53;;;18.90;87.60;;;;;;5093095;28;20025;-73
2023/06/18 03:36:47;;;;;;;8.90;5.45;;;18.90;87.80;;;;;;5093343;28;20019;-75
2023/06/18 03:39:20;;;;;;;12.35;5.85;;;18.80;87.90;;;;;;5093183;28;20031;-74
2023/06/18 03:41:46;;;;;;;8.43;6.10;;;18.90;87.90;;;;;;5092860;28;20565;-74
2023/06/18 03:44:11;;;;;;;12.93;6.40;;;18.80;87.90;;;;;;5092980;28;20027;-74
2023/06/18 03:46:37;;;;;;;8.85;5.80;;;18.80;87.90;;;;;;5093272;28;20020;-74
2023/06/18 03:49:03;;;;;;;7.13;5.68;;;18.80;87.80;;;;;;5093032;28;20031;-75
2023/06/18 03:51:29;;;;;;;9.38;6.47;;;18.80;88.00;;;;;;5092752;28;20052;-75
2023/06/18 03:53:55;;;;;;;9.07;6.25;;;18.80;88.20;;;;;;5092706;28;20047;-74
2023/06/18 03:56:21;;;;;;;12.00;7.22;;;18.80;88.60;;;;;;5092788;28;20063;-75
2023/06/18 03:58:48;;;;;;;11.80;5.90;;;18.80;88.70;;;;;;5093176;28;20036;-74
2023/06/18 04:01:14;;;;;;;8.13;6.57;;;18.80;88.80;;;;;;5092800;28;20468;-74
2023/06/18 04:03:40;;;;;;;12.63;6.05;;;18.80;88.90;;;;;;5092875;28;20020;-74
2023/06/18 04:06:06;;;;;;;8.65;6.60;;;18.90;88.70;;;;;;5092890;28;20368;-74
2023/06/18 04:08:33;;;;;;;13.05;7.28;;;18.80;88.60;;;;;;5092721;28;20063;-73
2023/06/18 04:10:59;;;;;;;7.18;6.03;;;18.90;88.80;;;;;;5092803;28;20032;-75
2023/06/18 04:13:25;;;;;;;13.18;6.57;;;18.90;88.60;;;;;;5093024;28;20492;-74
2023/06/18 04:15:51;;;;;;;7.82;5.80;;;18.90;88.30;;;;;;5092517;28;20095;-75
2023/06/18 04:18:17;;;;;;;7.60;5.70;;;18.90;87.90;;;;;;5092817;28;20468;-74
2023/06/18 04:20:43;;;;;;;7.80;5.75;;;18.90;87.60;;;;;;5092700;28;20095;-74
2023/06/18 04:23:09;;;;;;;8.10;5.75;;;18.90;87.30;;;;;;5092668;28;20487;-73
2023/06/18 04:25:34;;;;;;;7.45;6.10;;;19.00;87.20;;;;;;5092558;28;20024;-75
2023/06/18 04:28:00;;;;;;;8.57;5.82;;;18.90;87.20;;;;;;5092522;28;20479;-75
2023/06/18 04:30:26;;;;;;;10.25;5.93;;;19.00;87.40;;;;;;5092568;28;20016;-74
2023/06/18 04:32:52;;;;;;;11.60;5.97;;;19.00;87.70;;;;;;5092425;28;20089;-74
2023/06/18 04:35:19;;;;;;;5.47;4.97;;;19.00;88.00;;;;;;5092480;28;20443;-74
2023/06/18 04:37:45;;;;;;;10.07;5.30;;;19.00;88.00;;;;;;5092422;28;20028;-75
2023/06/18 04:40:11;;;;;;;7.78;5.20;;;19.00;88.00;;;;;;5093121;28;20359;-74
2023/06/18 04:42:36;;;;;;;7.57;4.95;;;19.00;87.90;;;;;;5092626;28;20089;-74
2023/06/18 04:45:03;;;;;;;6.93;4.75;;;19.10;87.80;;;;;;5092411;28;20016;-74
2023/06/18 04:47:29;;;;;;;6.13;4.63;;;19.10;87.40;;;;;;5103968;28;20024;-74
2023/06/18 04:49:55;;;;;;;4.95;4.07;;;19.10;86.50;;;;;;5112780;28;20039;-75
2023/06/18 04:52:20;;;;;;;7.03;5.18;;;19.10;85.90;;;;;;5112765;28;20036;-75
2023/06/18 04:54:46;;;;;;;9.88;4.80;;;19.20;85.70;;;;;;5112788;28;20046;-74
2023/06/18 04:57:11;;;;;;;8.00;4.82;;;19.20;85.70;;;;;;5112374;28;20038;-76
2023/06/18 04:59:38;;;;;;;6.70;4.38;;;19.20;86.00;;;;;;5112403;28;20227;-74
2023/06/18 05:02:04;;;;;;;5.97;4.60;;;19.20;85.70;;;;;;5112780;28;20035;-74
2023/06/18 05:04:30;;;;;;;7.63;3.90;;;19.30;85.30;;;;;;5112664;28;20019;-74
2023/06/18 05:06:56;;;;;;;8.40;4.50;;;19.30;84.70;;;;;;5112447;28;20024;-74
2023/06/18 05:09:22;;;;;;;7.07;4.50;;;19.30;84.20;;;;;;5112529;28;20387;-74
2023/06/18 05:11:48;;;;;;;8.10;4.38;;;19.40;84.60;;;;;;5112449;28;20109;-75
2023/06/18 05:14:14;;;;;;;7.63;4.47;;;19.40;84.60;;;;;;5112565;28;20066;-74
2023/06/18 05:16:39;;;;;;;8.60;4.78;;;19.40;84.40;;;;;;5112508;28;20024;-74
2023/06/18 05:19:05;;;;;;;6.93;4.57;;;19.50;84.20;;;;;;5113637;28;20376;-74
2023/06/18 05:21:31;;;;;;;8.82;4.50;;;19.50;83.60;;;;;;5116191;28;20026;-74
2023/06/18 05:23:57;;;;;;;7.55;4.50;;;19.50;83.50;;;;;;5115901;28;20019;-74
2023/06/18 05:26:22;;;;;;;8.75;4.38;;;19.60;83.40;;;;;;5115993;28;20031;-75
2023/06/18 05:28:49;;;;;;;10.18;4.90;;;19.60;83.20;;;;;;5116104;28;20577;-74
2023/06/18 05:31:15;;;;;;;7.97;4.88;;;19.70;83.60;;;;;;5116096;28;20054;-75
2023/06/18 05:33:40;;;;;;;13.02;6.05;;;19.70;84.00;;;;;;5109856;28;20024;-75
2023/06/18 05:36:06;;;;;;;9.20;5.55;;;19.80;84.30;;;;;;5101908;28;20041;-73
2023/06/18 05:38:32;;;;;;;5.50;4.70;;;19.80;84.80;;;;;;5103099;28;20388;-75
2023/06/18 05:40:58;;;;;;;8.77;5.05;;;19.80;85.20;;;;;;5112857;28;20026;-75
2023/06/18 05:43:23;;;;;;;7.22;5.20;;;19.80;85.60;;;;;;5115667;28;20027;-75
2023/06/18 05:45:50;;;;;;;6.10;4.68;;;19.80;85.70;;;;;;5115908;28;20035;-75
2023/06/18 05:48:16;;;;;;;5.40;4.90;;;19.90;85.90;;;;;;5118709;28;20376;-76
2023/06/18 05:50:42;;;;;;;5.88;4.72;;;19.90;86.00;;;;;;5118046;28;20073;-75
2023/06/18 05:53:08;;;;;;;12.40;5.13;;;19.90;86.20;;;;;;5115404;28;20030;-76
2023/06/18 05:55:34;;;;;;;10.95;5.43;;;20.00;86.40;;;;;;5112598;28;20024;-76
2023/06/18 05:57:59;;;;;;;10.57;4.88;;;20.00;86.40;;;;;;5112662;28;20027;-76
2023/06/18 06:00:26;;;;;;;9.85;4.68;;;20.10;86.10;;;;;;5114812;28;20038;-75
2023/06/18 06:02:52;;;;;;;7.13;5.05;;;20.10;86.00;;;;;;5115271;28;20511;-76
2023/06/18 06:05:18;;;;;;;6.82;5.10;;;20.10;85.90;;;;;;5114900;28;20463;-76
2023/06/18 06:07:43;;;;;;;7.43;5.22;;;20.20;86.10;;;;;;5115272;28;20034;-76
2023/06/18 06:10:11;;;;;;;8.15;5.10;;;20.20;86.20;;;;;;5115227;28;20380;-77
2023/06/18 06:12:37;;;;;;;8.10;4.97;;;20.30;85.90;;;;;;5114907;28;20403;-75
2023/06/18 06:15:04;;;;;;;7.82;4.88;;;20.30;85.40;;;;;;5114998;28;20030;-75
2023/06/18 06:17:30;;;;;;;7.30;4.97;;;20.30;85.20;;;;;;5115097;28;20019;-75
2023/06/18 06:19:55;;;;;;;8.32;5.25;;;20.40;85.10;;;;;;5115006;28;20020;-75
2023/06/18 06:22:21;;;;;;;6.25;4.50;;;20.40;84.80;;;;;;5114914;28;20503;-76
2023/06/18 06:24:47;;;;;;;9.77;5.20;;;20.40;84.80;;;;;;5114908;28;20035;-75
2023/06/18 06:27:12;;;;;;;5.55;4.35;;;20.50;85.00;;;;;;5114894;28;20028;-75
2023/06/18 06:29:38;;;;;;;11.98;5.15;;;20.50;84.90;;;;;;5115034;28;20028;-77
2023/06/18 06:32:05;;;;;;;5.95;5.10;;;20.50;84.70;;;;;;5114945;28;20414;-77
2023/06/18 06:34:31;;;;;;;6.93;5.00;;;20.60;84.60;;;;;;5113688;28;20027;-81
2023/06/18 06:36:57;;;;;;;5.63;5.00;;;20.60;84.60;;;;;;5111864;28;20028;-76
2023/06/18 06:39:23;;;;;;;6.07;4.50;;;20.70;84.40;;;;;;5111349;28;20024;-75
2023/06/18 06:41:48;;;;;;;5.85;4.80;;;20.70;84.30;;;;;;5111720;28;20054;-77
2023/06/18 06:44:15;;;;;;;6.78;5.00;;;20.80;84.30;;;;;;5112852;28;20027;-77
2023/06/18 06:46:41;;;;;;;5.78;5.10;;;20.80;84.20;;;;;;5113323;28;20043;-76
2023/06/18 06:49:07;;;;;;;7.57;4.93;;;20.80;84.20;;;;;;5095093;28;20058;-74
2023/06/18 06:51:36;;;;;;;12.15;5.03;;;20.90;84.40;;;;;;5093622;28;20036;-75
2023/06/18 06:54:03;;;;;;;7.65;4.68;;;21.00;84.40;;;;;;5093715;28;20052;-74
2023/06/18 06:56:30;;;;;;;10.07;4.68;;;21.00;84.20;;;;;;5093611;28;20391;-74
2023/06/18 06:58:57;;;;;;;8.25;4.72;;;21.10;83.90;;;;;;5093761;28;20020;-75
2023/06/18 07:01:23;;;;;;;5.03;4.53;;;21.10;83.70;;;;;;5093621;28;20479;-74
2023/06/18 07:03:48;;;;;;;8.13;4.80;;;21.20;83.70;;;;;;5093370;28;20055;-75
2023/06/18 07:06:14;;;;;;;8.73;4.70;;;21.30;83.40;;;;;;5092753;28;20492;-75
2023/06/18 07:08:40;;;;;;;6.68;4.15;;;21.30;83.20;;;;;;5093625;28;20020;-75
2023/06/18 07:11:06;;;;;;;6.93;4.63;;;21.40;82.80;;;;;;5093666;28;20047;-75
2023/06/18 07:13:32;;;;;;;6.32;4.63;;;21.50;82.50;;;;;;5093636;28;20032;-74
2023/06/18 07:15:57;;;;;;;5.63;4.50;;;21.50;81.90;;;;;;5093730;28;20353;-73
2023/06/18 07:18:23;;;;;;;7.03;4.60;;;21.60;81.10;;;;;;5093934;28;20047;-74
2023/06/18 07:20:49;;;;;;;5.65;4.43;;;21.60;80.50;;;;;;5093602;28;20028;-74
2023/06/18 07:23:14;;;;;;;7.03;4.53;;;21.70;80.20;;;;;;5093577;28;20024;-75
2023/06/18 07:25:40;;;;;;;5.68;4.90;;;21.70;79.60;;;;;;5093540;28;20379;-74
2023/06/18 07:28:06;;;;;;;5.65;4.55;;;21.80;79.80;;;;;;5093431;28;20029;-74
2023/06/18 07:30:31;;;;;;;8.20;5.00;;;21.90;79.00;;;;;;5093525;28;20035;-74
2023/06/18 07:32:57;;;;;;;7.93;4.82;;;21.90;78.70;;;;;;5093477;28;20129;-75
2023/06/18 07:35:23;;;;;;;6.18;4.82;;;22.00;78.50;;;;;;5101082;22;20139;-75
2023/06/18 07:37:49;;;;;;;5.82;4.22;;;22.10;78.80;;;;;;5093291;28;20097;-74
2023/06/18 07:40:15;;;;;;;9.10;4.60;;;22.10;77.90;;;;;;5093416;28;20028;-74
2023/06/18 07:42:41;;;;;;;6.18;4.28;;;22.20;77.20;;;;;;5093168;28;20032;-75
2023/06/18 07:45:08;;;;;;;8.27;4.13;;;22.20;76.50;;;;;;5093495;28;20527;-74
2023/06/18 07:47:33;;;;;;;9.48;4.25;;;22.30;76.10;;;;;;5093233;28;20016;-74
2023/06/18 07:49:59;;;;;;;6.07;4.70;;;22.40;75.00;;;;;;5093159;28;20490;-74
2023/06/18 07:52:27;;;;;;;6.18;4.53;;;22.40;74.20;;;;;;5093068;28;20031;-74
2023/06/18 07:54:52;;;;;;;5.35;4.30;;;22.40;72.80;;;;;;5093304;28;20125;-74
2023/06/18 07:57:18;;;;;;;9.65;4.30;;;22.50;73.10;;;;;;5093466;28;20028;-74
2023/06/18 07:59:44;;;;;;;14.02;4.45;;;22.50;73.40;;;;;;5093043;28;20052;-73
2023/06/18 08:02:10;;;;;;;7.65;4.70;;;22.60;73.70;;;;;;5092997;28;20020;-74
2023/06/18 08:04:35;;;;;;;5.05;4.10;;;22.60;74.40;;;;;;5093179;28;20489;-74
2023/06/18 08:07:01;;;;;;;8.38;4.43;;;22.70;75.20;;;;;;5093078;28;20020;-74
2023/06/18 08:09:27;;;;;;;5.20;4.20;;;22.70;75.70;;;;;;5091835;28;20062;-74
2023/06/18 08:11:53;;;;;;;4.85;4.07;;;22.80;75.20;;;;;;5092765;28;20074;-74
2023/06/18 08:14:19;;;;;;;5.70;4.03;;;22.90;74.90;;;;;;5093242;28;20024;-74
2023/06/18 08:16:44;;;;;;;4.50;3.95;;;22.90;74.50;;;;;;5093008;28;20494;-74
2023/06/18 08:19:12;;;;;;;6.88;4.30;;;23.00;73.10;;;;;;5092490;28;20103;-75
2023/06/18 08:21:37;;;;;;;5.65;3.85;;;23.10;72.70;;;;;;5091534;28;20012;-75
2023/06/18 08:24:03;;;;;;;5.93;4.07;;;23.10;72.60;;;;;;5092950;28;20036;-74
2023/06/18 08:26:29;;;;;;;4.45;3.95;;;23.20;72.40;;;;;;5092795;28;20020;-74
2023/06/18 08:28:55;;;;;;;6.32;3.78;;;23.20;72.00;;;;;;5092852;28;20077;-74
2023/06/18 08:31:21;;;;;;;5.18;4.10;;;23.30;72.20;;;;;;5092991;28;20024;-74
2023/06/18 08:33:48;;;;;;;6.32;4.05;;;23.40;71.30;;;;;;5092716;28;20357;-75
2023/06/18 08:36:13;;;;;;;5.10;4.18;;;23.40;71.30;;;;;;5092657;28;20507;-74
2023/06/18 08:38:39;;;;;;;5.65;4.38;;;23.50;70.30;;;;;;5092922;28;20274;-74
2023/06/18 08:41:05;;;;;;;5.80;4.18;;;23.50;70.40;;;;;;5092779;28;20016;-74
2023/06/18 08:43:37;;;;;;;5.50;4.10;;;23.60;70.30;;;;;;5092835;28;20051;-74
2023/06/18 08:46:11;;;;;;;7.90;4.75;;;23.70;69.80;;;;;;5092705;28;20030;-74
2023/06/18 08:49:00;;;;;;;4.90;4.10;;;23.80;70.60;;;;;;5092468;28;20027;-74
2023/06/18 08:51:27;;;;;;;5.00;4.03;;;23.90;70.70;;;;;;5092351;28;20044;-75
2023/06/18 08:54:11;;;;;;;7.13;4.32;;;24.00;71.30;;;;;;5093183;28;20024;-74
2023/06/18 08:56:44;;;;;;;8.30;4.35;;;24.00;70.60;;;;;;5096582;28;20110;-74
2023/06/18 08:59:11;;;;;;;7.45;4.28;;;24.10;69.60;;;;;;5096361;28;20042;-74
2023/06/18 09:01:37;;;;;;;8.43;4.70;;;24.10;68.40;;;;;;5096810;28;20020;-74
2023/06/18 09:04:05;;;;;;;6.65;3.97;;;24.10;67.30;;;;;;5096332;28;20036;-74
2023/06/18 09:06:32;;;;;;;8.60;4.68;;;24.10;67.10;;;;;;5096354;28;20024;-74
2023/06/18 09:09:00;;;;;;;4.97;4.45;;;24.10;66.70;;;;;;5096427;28;20094;-74
2023/06/18 09:11:26;;;;;;;5.10;3.83;;;24.10;66.60;;;;;;5096409;28;20043;-74
2023/06/18 09:13:52;;;;;;;5.40;3.97;;;24.20;65.00;;;;;;5096233;28;20039;-74
2023/06/18 09:16:18;;;;;;;7.65;4.93;;;24.20;64.50;;;;;;5096192;28;20031;-74
2023/06/18 09:18:45;;;;;;;4.82;4.00;;;24.30;64.40;;;;;;5096265;28;20504;-74
2023/06/18 09:21:38;;;;;;;5.95;4.20;;;24.40;64.80;;;;;;5096250;28;20024;-75
2023/06/18 09:24:09;;;;;;;7.40;4.13;;;24.40;65.20;;;;;;5095733;28;20020;-74
2023/06/18 09:26:35;;;;;;;5.10;3.80;;;24.50;65.60;;;;;;5095398;28;20016;-74
2023/06/18 09:29:05;;;;;;;7.60;4.60;;;24.70;65.20;;;;;;5095625;28;20024;-75
2023/06/18 09:31:31;;;;;;;12.40;4.38;;;24.80;64.60;;;;;;5095250;28;20357;-74
2023/06/18 09:33:57;;;;;;;5.20;4.45;;;24.80;62.80;;;;;;5095503;28;20028;-75
2023/06/18 09:36:25;;;;;;;12.82;4.75;;;24.90;62.00;;;;;;5095403;28;20491;-74
2023/06/18 09:38:53;;;;;;;13.15;4.85;;;24.90;61.20;;;;;;5093844;28;20081;-74
2023/06/18 09:41:19;;;;;;;11.80;4.20;;;25.00;62.00;;;;;;5095431;28;20109;-74
2023/06/18 09:43:50;;;;;;;5.40;4.00;;;25.00;60.90;;;;;;5095540;28;20028;-74
2023/06/18 09:46:18;;;;;;;6.03;4.50;;;25.10;58.50;;;;;;5095544;28;20024;-75
2023/06/18 09:48:46;;;;;;;16.75;4.50;;;25.10;59.90;;;;;;5095578;28;20097;-74
2023/06/18 09:51:14;;;;;;;9.13;4.47;;;25.20;61.40;;;;;;5094990;28;20046;-73
2023/06/18 09:53:39;;;;;;;5.38;4.47;;;25.20;60.50;;;;;;5094754;28;20024;-73
2023/06/18 09:56:15;;;;;;;6.30;4.40;;;25.30;61.50;;;;;;5095190;28;20439;-72
2023/06/18 09:58:45;;;;;;;8.95;4.43;;;25.30;62.00;;;;;;5095549;28;20059;-73
2023/06/18 10:01:12;;;;;;;8.17;4.70;;;25.40;61.50;;;;;;5095371;28;20016;-73
2023/06/18 10:03:38;;;;;;;8.57;4.85;;;25.40;61.80;;;;;;5093811;28;20384;-74
2023/06/18 10:06:21;;;;;;;6.03;4.35;;;25.40;62.90;;;;;;5094720;28;20024;-74
2023/06/18 10:08:52;;;;;;;7.75;4.55;;;25.50;61.30;;;;;;5095227;28;20423;-73
2023/06/18 10:11:20;;;;;;;4.90;4.40;;;25.50;62.30;;;;;;5095087;28;20056;-70
2023/06/18 10:13:47;;;;;;;4.85;4.18;;;25.60;63.30;;;;;;5094904;28;20024;-72
2023/06/18 10:16:17;;;;;;;8.73;4.30;;;25.60;63.50;;;;;;5094567;28;20077;-73
2023/06/18 10:18:59;;;;;;;5.78;4.57;;;25.70;62.60;;;;;;5094821;28;20032;-73
2023/06/18 10:21:28;;;;;;;8.93;4.15;;;25.70;62.20;;;;;;5095015;28;20028;-72
2023/06/18 10:23:57;;;;;;;9.68;4.50;;;25.70;62.50;;;;;;5094941;28;20032;-76
2023/06/18 10:26:23;;;;;;;6.25;4.60;;;25.70;61.90;;;;;;5094741;28;20024;-75
2023/06/18 10:28:53;;;;;;;6.05;5.00;;;25.80;61.80;;;;;;5094544;28;20115;-75
2023/06/18 10:31:20;;;;;;;9.88;4.60;;;25.80;61.80;;;;;;5094149;28;20016;-75
2023/06/18 10:33:47;;;;;;;7.57;4.25;;;25.80;61.10;;;;;;5094209;28;20024;-75
2023/06/18 10:36:14;;;;;;;6.90;4.15;;;25.90;59.70;;;;;;5094074;28;20050;-75
2023/06/18 10:38:40;;;;;;;7.75;4.53;;;25.80;58.60;;;;;;5094294;28;20047;-75
2023/06/18 10:41:19;;;;;;;6.85;3.88;;;25.90;56.90;;;;;;5093875;28;20031;-75
2023/06/18 10:43:50;;;;;;;7.13;4.05;;;25.90;57.60;;;;;;5093561;28;20020;-79
2023/06/18 10:46:16;;;;;;;5.20;3.97;;;26.00;55.60;;;;;;5093418;28;20020;-79
2023/06/18 10:49:16;;;;;;;5.57;3.67;;;25.90;55.40;;;;;;5093130;28;20464;-79
2023/06/18 10:51:57;;;;;;;8.13;3.80;;;25.90;54.20;;;;;;5093095;28;20460;-79
2023/06/18 10:54:26;;;;;;;5.60;3.42;;;25.90;53.90;;;;;;5093325;28;20455;-78
2023/06/18 10:56:55;;;;;;;5.35;3.90;;;25.90;52.80;;;;;;5092880;28;20092;-80
2023/06/18 10:59:49;;;;;;;6.57;3.42;;;25.90;52.70;;;;;;5089613;28;20470;-80
2023/06/18 11:02:15;;;;;;;4.53;3.63;;;25.90;53.40;;;;;;5087871;28;20047;-79
2023/06/18 11:04:41;;;;;;;5.35;3.92;;;25.90;53.60;;;;;;5092311;28;20023;-78
2023/06/18 11:07:25;;;;;;;4.35;3.78;;;25.90;54.60;;;;;;5092005;28;20031;-81
2023/06/18 11:09:52;;;;;;;8.32;3.50;;;26.00;55.20;;;;;;5091984;28;20036;-80
2023/06/18 11:12:20;;;;;;;8.05;3.80;;;26.00;53.60;;;;;;5093358;28;20040;-77
2023/06/18 11:15:16;;;;;;;4.68;3.50;;;26.10;53.30;;;;;;5092486;28;20093;-79
2023/06/18 11:17:49;;;;;;;3.90;3.28;;;26.10;53.00;;;;;;5092681;28;20111;-78
2023/06/18 11:20:17;;;;;;;5.53;3.45;;;26.10;52.80;;;;;;5093236;28;20020;-78
2023/06/18 11:22:43;;;;;;;9.30;3.58;;;26.10;51.90;;;;;;5092604;28;20074;-79
2023/06/18 11:25:10;;;;;;;5.45;3.30;;;26.20;52.20;;;;;;5090953;28;20020;-78
2023/06/18 11:27:39;;;;;;;5.53;3.40;;;26.10;52.00;;;;;;5091263;28;20455;-77
2023/06/18 11:30:07;;;;;;;6.45;3.80;;;26.10;51.00;;;;;;5091864;28;20025;-79
2023/06/18 11:32:33;;;;;;;3.78;3.28;;;26.10;52.10;;;;;;5093474;28;20035;-80
2023/06/18 11:35:00;;;;;;;6.35;3.65;;;26.10;52.80;;;;;;5093488;28;20081;-78
2023/06/18 11:37:27;;;;;;;5.60;4.05;;;26.20;52.50;;;;;;5093496;28;20099;-77
2023/06/18 11:39:55;;;;;;;6.07;3.67;;;26.20;52.30;;;;;;5093210;28;20020;-73
2023/06/18 11:42:21;;;;;;;4.55;3.17;;;26.20;53.20;;;;;;5093631;28;20031;-77
2023/06/18 11:44:49;;;;;;;4.65;3.70;;;26.20;51.70;;;;;;5093511;28;20024;-79
2023/06/18 11:47:15;;;;;;;5.95;3.70;;;26.20;51.50;;;;;;5094240;28;20388;-80
2023/06/18 11:49:45;;;;;;;6.55;3.80;;;26.20;51.30;;;;;;5092922;28;20023;-81
2023/06/18 11:52:14;;;;;;;5.45;3.33;;;26.20;51.00;;;;;;5093745;28;20032;-82
2023/06/18 11:54:40;;;;;;;7.22;3.55;;;26.20;50.80;;;;;;5093754;28;20472;-78
2023/06/18 11:57:09;;;;;;;6.55;3.88;;;26.20;51.10;;;;;;5093471;28;20074;-81
2023/06/18 11:59:35;;;;;;;7.40;3.80;;;26.20;51.10;;;;;;5094482;28;20111;-78
2023/06/18 12:02:13;;;;;;;5.45;3.63;;;26.20;50.60;;;;;;5093492;28;20024;-78
2023/06/18 12:04:43;;;;;;;5.55;3.42;;;26.20;51.00;;;;;;5092618;28;20032;-79
2023/06/18 12:07:17;;;;;;;6.93;3.28;;;26.20;50.10;;;;;;5092915;28;20541;-77
2023/06/18 12:09:44;;;;;;;7.80;3.67;;;26.20;50.00;;;;;;5093164;28;20081;-79
2023/06/18 12:12:09;;;;;;;5.75;3.70;;;26.20;50.20;;;;;;5094337;28;20054;-79
2023/06/18 12:14:55;;;;;;;6.35;3.65;;;26.20;50.60;;;;;;5094380;28;20024;-77
2023/06/18 12:17:31;;;;;;;4.85;3.58;;;26.30;50.20;;;;;;5092648;28;20101;-77
2023/06/18 12:20:07;;;;;;;5.13;3.75;;;26.30;50.60;;;;;;5092520;28;20456;-79
2023/06/18 12:22:33;;;;;;;6.20;3.53;;;26.30;50.30;;;;;;5092731;28;20425;-78
2023/06/18 12:24:59;;;;;;;5.03;3.65;;;26.30;49.50;;;;;;5092759;28;20035;-78
2023/06/18 12:27:25;;;;;;;8.10;3.92;;;26.30;49.50;;;;;;5092142;28;20024;-77
2023/06/18 12:29:59;;;;;;;7.40;3.90;;;26.30;50.60;;;;;;5096461;28;20440;-78
2023/06/18 12:32:24;;;;;;;4.32;3.38;;;26.30;51.30;;;;;;5096958;28;20040;-79
2023/06/18 12:34:50;;;;;;;4.90;3.83;;;26.40;51.10;;;;;;5096596;28;20365;-77
2023/06/18 12:37:15;;;;;;;8.05;3.88;;;26.40;51.20;;;;;;5096551;28;20093;-79
2023/06/18 12:40:09;;;;;;;4.05;3.55;;;26.40;51.30;;;;;;5096373;28;20161;-78
2023/06/18 12:42:35;;;;;;;5.18;4.15;;;26.50;51.60;;;;;;5097363;28;20051;-77
2023/06/18 12:45:01;;;;;;;5.95;4.00;;;26.50;49.50;;;;;;5097700;28;20060;-78
2023/06/18 12:47:26;;;;;;;3.83;3.42;;;26.50;49.90;;;;;;5097971;28;20020;-77